Terminal Aerodrome Forecast
Issued by NWS Birmingham, AL

Home | Current Version | Previous Version | Text Only | Print | Product List | Glossary On
Versions: 1 2 3 4 5 6 7 8 9 10 11 12 13 14 15 16 17 18 19 20 21 22 23 24 25 26 27 28 29 30 31 32
000
FTUS44 KBMX 250520
TAFBHM
TAF
KBHM 250520Z 2506/2606 33004KT 4SM -DZ BR OVC002
     FM251600 VRB03KT P6SM OVC008
     FM251700 VRB03KT P6SM OVC011
     FM251900 VRB03KT P6SM OVC020
     FM260100 VRB02KT P6SM OVC018=

USA.gov is the U.S. government's official web portal to all federal, state and local government web resources and services.